createdAt,value
2019-02-20T00:00:28.145Z,78.21
2019-02-20T00:02:58.168Z,78.58
2019-02-20T00:05:28.047Z,78.99
2019-02-20T00:07:58.190Z,78.99
2019-02-20T00:10:28.361Z,78.81
2019-02-20T00:12:58.158Z,78.64
2019-02-20T00:15:28.076Z,78.64
2019-02-20T00:17:58.049Z,78.97
2019-02-20T00:20:27.947Z,79.20
2019-02-20T00:22:58.043Z,79.06
2019-02-20T00:25:28.189Z,79.14
2019-02-20T00:27:58.030Z,79.34
2019-02-20T00:30:27.791Z,79.24
2019-02-20T00:32:57.992Z,79.24
2019-02-20T00:35:27.721Z,79.51
2019-02-20T00:37:57.762Z,79.51
2019-02-20T00:40:27.778Z,79.31
2019-02-20T00:42:57.736Z,79.48
2019-02-20T00:45:56.616Z,79.24
2019-02-20T00:48:41.169Z,79.00
2019-02-20T00:51:17.801Z,79.52
2019-02-20T00:53:51.994Z,79.52
2019-02-20T00:56:21.892Z,79.44
2019-02-20T00:58:51.942Z,79.52
2019-02-20T01:01:21.682Z,79.42
2019-02-20T01:03:51.644Z,79.39
2019-02-20T01:06:21.340Z,79.44
2019-02-20T01:08:51.218Z,79.55
2019-02-20T01:11:21.086Z,79.55
2019-02-20T01:13:50.777Z,79.58
2019-02-20T01:16:20.546Z,79.76
2019-02-20T01:18:50.437Z,79.76
2019-02-20T01:21:20.125Z,79.44
2019-02-20T01:23:50.000Z,79.53
2019-02-20T01:26:19.803Z,79.53
2019-02-20T01:28:49.497Z,79.51
2019-02-20T01:31:19.105Z,79.41
2019-02-20T01:33:49.105Z,79.37
2019-02-20T01:36:18.867Z,79.41
2019-02-20T01:38:48.574Z,78.98
2019-02-20T01:41:19.066Z,78.98
2019-02-20T01:43:48.903Z,79.33
2019-02-20T01:46:18.728Z,79.28
2019-02-20T01:48:48.482Z,79.19
2019-02-20T01:51:18.179Z,79.01
2019-02-20T01:53:47.934Z,79.25
2019-02-20T01:56:18.021Z,79.12
2019-02-20T01:58:47.764Z,79.19
2019-02-20T02:01:17.524Z,79.19
2019-02-20T02:03:47.503Z,79.05
2019-02-20T02:13:03.967Z,79.44
2019-02-20T02:18:39.598Z,78.93
2019-02-20T02:21:09.199Z,79.46
2019-02-20T02:24:01.347Z,79.46
2019-02-20T02:32:52.417Z,79.75
2019-02-20T02:39:25.358Z,79.56
2019-02-20T02:48:14.774Z,79.90
2019-02-20T02:53:49.157Z,79.97
2019-02-20T03:02:10.412Z,79.92
2019-02-20T03:04:59.197Z,79.95
2019-02-20T03:07:49.634Z,79.95
2019-02-20T03:40:49.374Z,80.04
2019-02-20T03:43:39.357Z,80.46
2019-02-20T03:46:09.472Z,80.46
2019-02-20T03:48:39.244Z,80.50
2019-02-20T03:51:28.231Z,80.58
2019-02-20T03:53:58.119Z,80.56
2019-02-20T04:05:36.898Z,80.90
2019-02-20T04:11:07.985Z,81.09
2019-02-20T04:13:37.782Z,81.09
2019-02-20T04:16:09.504Z,81.04
2019-02-20T04:25:05.310Z,80.92
2019-02-20T04:27:57.221Z,80.78
2019-02-20T04:37:20.738Z,80.19
2019-02-20T05:01:04.727Z,80.76
2019-02-20T05:29:51.811Z,81.86
2019-02-20T05:38:20.244Z,81.33
2019-02-20T05:40:50.022Z,81.18
2019-02-20T05:48:59.166Z,81.77
2019-02-20T05:54:33.823Z,81.76
2019-02-20T06:00:21.227Z,81.91
2019-02-20T06:02:51.108Z,81.87
2019-02-20T06:11:43.799Z,81.64
2019-02-20T06:14:13.682Z,81.89
2019-02-20T06:31:04.653Z,82.24
2019-02-20T06:45:39.512Z,82.77
2019-02-20T06:54:59.494Z,82.69
2019-02-20T06:57:49.606Z,82.71
2019-02-20T07:00:19.638Z,82.65
2019-02-20T07:03:28.038Z,82.57
2019-02-20T07:45:28.015Z,81.13
2019-02-20T08:04:47.717Z,81.55
2019-02-20T08:07:17.773Z,81.36
2019-02-20T08:09:47.500Z,81.19
2019-02-20T08:12:17.434Z,81.04
2019-02-20T08:14:47.245Z,80.94
2019-02-20T08:17:17.606Z,80.93
2019-02-20T08:19:47.551Z,80.97
2019-02-20T08:22:17.393Z,80.91
2019-02-20T08:35:26.361Z,80.77
2019-02-20T08:37:56.166Z,80.47
2019-02-20T08:40:25.715Z,80.31
2019-02-20T08:42:55.544Z,80.13
2019-02-20T08:45:25.407Z,80.02
2019-02-20T08:47:55.271Z,79.93
2019-02-20T08:50:25.487Z,79.86
2019-02-20T08:52:55.205Z,79.86
2019-02-20T08:55:31.799Z,79.48
2019-02-20T08:57:57.242Z,79.31
2019-02-20T09:00:27.358Z,79.25
2019-02-20T09:02:57.366Z,78.99
2019-02-20T09:05:27.743Z,78.76
2019-02-20T09:07:57.442Z,78.69
2019-02-20T09:13:02.298Z,77.79
2019-02-20T09:15:32.158Z,76.73
2019-02-20T09:18:38.345Z,76.21
2019-02-20T09:21:08.263Z,76.21
2019-02-20T09:23:38.180Z,75.51
2019-02-20T09:26:08.517Z,75.47
2019-02-20T09:28:38.117Z,74.62
2019-02-20T09:31:26.844Z,73.96
2019-02-20T09:33:56.763Z,73.64
2019-02-20T09:36:26.648Z,72.81
2019-02-20T09:42:22.040Z,71.58
2019-02-20T09:44:51.803Z,69.53
2019-02-20T09:50:49.093Z,68.93
2019-02-20T09:56:48.013Z,67.88
2019-02-20T10:01:53.330Z,57.36
2019-02-20T10:04:23.023Z,53.30
2019-02-20T10:06:52.800Z,50.93
2019-02-20T10:09:22.565Z,49.13
2019-02-20T10:11:52.465Z,47.23
2019-02-20T10:14:22.200Z,46.03
2019-02-20T10:16:51.948Z,45.37
2019-02-20T10:19:21.923Z,43.32
2019-02-20T10:22:10.675Z,40.20
2019-02-20T10:24:40.452Z,40.20
2019-02-20T10:27:10.138Z,40.72
2019-02-20T10:30:00.435Z,45.80
2019-02-20T10:32:30.339Z,45.80
2019-02-20T10:35:00.369Z,45.04
2019-02-20T10:37:30.269Z,44.86
2019-02-20T10:40:00.350Z,44.88
2019-02-20T10:42:30.243Z,47.34
2019-02-20T10:45:00.005Z,49.62
2019-02-20T10:47:29.970Z,50.90
2019-02-20T10:50:00.361Z,51.57
2019-02-20T10:52:48.947Z,51.28
2019-02-20T10:55:18.876Z,51.28
2019-02-20T11:00:37.189Z,50.76
2019-02-20T11:03:07.165Z,49.67
2019-02-20T11:05:37.236Z,49.93
2019-02-20T11:11:34.728Z,48.93
2019-02-20T11:14:04.483Z,48.46
2019-02-20T11:16:34.197Z,47.33
2019-02-20T11:19:03.933Z,47.31
2019-02-20T11:21:33.695Z,46.44
2019-02-20T11:24:03.469Z,46.44
2019-02-20T11:26:33.498Z,45.52
2019-02-20T11:29:03.446Z,46.05
2019-02-20T11:31:33.343Z,45.34
2019-02-20T11:45:43.959Z,45.41
2019-02-20T11:48:13.886Z,45.61
2019-02-20T12:00:30.554Z,44.72
2019-02-20T12:03:00.375Z,44.01
2019-02-20T12:05:30.181Z,43.75
2019-02-20T12:08:00.300Z,43.37
2019-02-20T12:10:30.309Z,43.50
2019-02-20T12:13:00.391Z,42.93
2019-02-20T12:15:30.378Z,43.11
2019-02-20T12:18:00.023Z,43.25
2019-02-20T12:20:29.810Z,42.68
2019-02-20T12:22:59.951Z,42.54
2019-02-20T12:25:30.208Z,42.13
2019-02-20T12:28:00.298Z,41.71
2019-02-20T12:30:30.193Z,42.03
2019-02-20T12:32:59.809Z,42.09
2019-02-20T12:38:18.621Z,41.92
2019-02-20T12:40:48.288Z,42.05
2019-02-20T12:43:18.416Z,42.01
2019-02-20T12:45:49.081Z,42.02
2019-02-20T12:48:19.724Z,42.21
2019-02-20T12:50:49.340Z,42.26
2019-02-20T12:53:18.913Z,42.82
2019-02-20T12:58:44.308Z,42.74
2019-02-20T13:06:29.932Z,43.84
2019-02-20T13:11:34.889Z,46.00
2019-02-20T13:14:04.727Z,48.09
2019-02-20T13:16:34.474Z,49.27
2019-02-20T13:21:51.268Z,50.83
2019-02-20T13:27:10.248Z,52.13
2019-02-20T13:29:40.464Z,52.83
2019-02-20T13:38:50.206Z,54.73
2019-02-20T13:44:28.153Z,54.97
2019-02-20T13:46:57.996Z,55.14
2019-02-20T13:49:28.157Z,55.81
2019-02-20T13:54:52.081Z,56.42
2019-02-20T14:10:35.279Z,57.27
2019-02-20T14:15:53.658Z,58.05
2019-02-20T14:18:23.337Z,58.61
2019-02-20T14:26:59.529Z,59.78
2019-02-20T14:29:29.357Z,60.90
2019-02-20T14:31:59.322Z,60.90
2019-02-20T14:34:29.286Z,61.57
2019-02-20T14:43:12.903Z,62.33
2019-02-20T14:50:03.321Z,63.65
2019-02-20T14:58:31.577Z,64.30
2019-02-20T15:04:07.150Z,64.97
2019-02-20T15:06:36.915Z,65.20
2019-02-20T15:12:18.572Z,66.48
2019-02-20T15:17:43.945Z,66.36
2019-02-20T15:20:13.781Z,66.94
2019-02-20T15:23:06.466Z,67.23
2019-02-20T15:25:56.949Z,67.20
2019-02-20T15:28:26.694Z,67.36
2019-02-20T16:03:39.606Z,72.20
2019-02-20T16:06:09.524Z,72.08
2019-02-20T16:08:39.361Z,72.76
2019-02-20T16:11:09.126Z,72.88
2019-02-20T16:13:39.369Z,72.94
2019-02-20T16:16:09.259Z,73.35
2019-02-20T16:18:39.087Z,73.69
2019-02-20T16:24:23.536Z,73.91
2019-02-20T16:27:29.575Z,73.94
2019-02-20T16:46:55.507Z,75.42
2019-02-20T16:49:25.139Z,75.53
2019-02-20T16:51:55.330Z,75.62
2019-02-20T17:20:08.398Z,75.31
2019-02-20T17:25:48.533Z,75.84
2019-02-20T17:34:45.642Z,76.20
2019-02-20T17:53:33.645Z,75.88
2019-02-20T17:56:03.314Z,75.98
2019-02-20T18:05:39.823Z,75.80
2019-02-20T18:08:28.627Z,76.06
2019-02-20T18:10:58.655Z,76.06
2019-02-20T18:16:54.976Z,75.83
2019-02-20T18:26:01.469Z,76.03
2019-02-20T18:31:45.375Z,76.87
2019-02-20T18:43:43.142Z,77.76
2019-02-20T19:05:56.108Z,79.41
2019-02-20T19:16:10.247Z,79.59
2019-02-20T19:19:16.336Z,79.80
2019-02-20T19:25:49.713Z,80.64
2019-02-20T19:32:21.737Z,80.85
2019-02-20T19:35:34.031Z,80.74
2019-02-20T19:38:41.712Z,80.76
2019-02-20T19:41:47.850Z,80.87
2019-02-20T21:10:27.458Z,84.16
2019-02-20T21:29:06.106Z,84.59
2019-02-20T21:38:34.334Z,84.29
2019-02-20T21:41:42.104Z,84.36
2019-02-20T22:01:40.794Z,84.11
2019-02-20T22:04:55.014Z,83.98
2019-02-20T22:48:46.838Z,84.74
2019-02-20T23:02:11.836Z,84.77
2019-02-20T23:08:51.698Z,84.92
2019-02-20T23:14:47.675Z,84.97
2019-02-20T23:17:17.700Z,84.99
2019-02-20T23:20:02.171Z,84.96
2019-02-20T23:22:31.846Z,84.96
2019-02-20T23:25:01.884Z,84.99
2019-02-20T23:27:31.766Z,84.52
2019-02-20T23:30:12.250Z,84.88
2019-02-20T23:32:33.736Z,84.79
2019-02-20T23:37:54.467Z,84.71
2019-02-20T23:40:24.330Z,85.44
